createdAt,value
2022-08-30T00:00:56.292Z,57.62
2022-08-30T00:03:22.890Z,57.54
2022-08-30T00:05:49.898Z,57.44
2022-08-30T00:08:16.882Z,57.53
2022-08-30T00:10:44.137Z,57.73
2022-08-30T00:13:12.682Z,58.16
2022-08-30T00:15:41.281Z,57.83
2022-08-30T00:18:08.074Z,57.70
2022-08-30T00:20:35.879Z,58.03
2022-08-30T00:23:02.707Z,57.96
2022-08-30T00:25:29.231Z,57.58
2022-08-30T00:27:55.791Z,57.82
2022-08-30T00:30:22.347Z,57.95
2022-08-30T00:32:49.048Z,57.68
2022-08-30T00:35:18.312Z,57.22
2022-08-30T00:37:44.762Z,57.34
2022-08-30T00:40:12.353Z,58.49
2022-08-30T00:42:40.759Z,59.38
2022-08-30T00:45:24.972Z,59.92
2022-08-30T00:47:51.680Z,59.28
2022-08-30T00:50:21.866Z,59.30
2022-08-30T00:52:52.923Z,59.93
2022-08-30T00:55:20.192Z,60.02
2022-08-30T00:57:48.397Z,59.34
2022-08-30T01:00:16.221Z,58.56
2022-08-30T01:02:42.805Z,58.29
2022-08-30T01:05:10.869Z,58.88
2022-08-30T01:07:43.261Z,58.90
2022-08-30T01:10:13.404Z,59.36
2022-08-30T01:12:41.022Z,60.31
2022-08-30T01:15:09.026Z,59.90
2022-08-30T01:17:37.038Z,59.98
2022-08-30T01:20:09.172Z,60.11
2022-08-30T01:22:47.444Z,59.46
2022-08-30T01:25:16.159Z,58.88
2022-08-30T01:27:48.054Z,58.93
2022-08-30T01:30:14.611Z,59.48
2022-08-30T01:32:43.951Z,58.91
2022-08-30T01:35:13.370Z,59.11
2022-08-30T01:37:39.960Z,59.02
2022-08-30T01:40:08.256Z,59.36
2022-08-30T01:42:35.180Z,59.54
2022-08-30T01:45:01.803Z,60.59
2022-08-30T01:47:28.287Z,61.22
2022-08-30T01:49:54.924Z,61.92
2022-08-30T01:52:21.466Z,62.87
2022-08-30T01:54:48.093Z,62.70
2022-08-30T01:57:17.861Z,62.22
2022-08-30T01:59:47.487Z,62.72
2022-08-30T02:02:16.313Z,62.11
2022-08-30T02:04:43.836Z,61.87
2022-08-30T02:07:10.774Z,61.59
2022-08-30T02:09:39.859Z,61.66
2022-08-30T02:12:07.791Z,61.57
2022-08-30T02:14:36.904Z,61.76
2022-08-30T02:17:08.618Z,61.51
2022-08-30T02:19:35.376Z,61.51
2022-08-30T02:22:02.469Z,61.73
2022-08-30T02:24:28.993Z,61.03
2022-08-30T02:26:55.523Z,62.00
2022-08-30T02:29:23.616Z,62.62
2022-08-30T02:31:50.487Z,62.73
2022-08-30T02:34:18.422Z,61.41
2022-08-30T02:36:45.722Z,61.53
2022-08-30T02:39:13.410Z,61.23
2022-08-30T02:41:41.178Z,61.46
2022-08-30T02:44:08.570Z,62.31
2022-08-30T02:46:36.720Z,61.82
2022-08-30T02:49:23.790Z,63.08
2022-08-30T02:51:50.411Z,63.41
2022-08-30T03:02:35.500Z,64.71
2022-08-30T03:05:03.159Z,63.86
2022-08-30T03:07:31.077Z,64.07
2022-08-30T03:09:58.524Z,63.38
2022-08-30T03:12:25.974Z,63.51
2022-08-30T03:14:53.494Z,63.36
2022-08-30T03:17:20.051Z,62.44
2022-08-30T03:19:47.387Z,63.07
2022-08-30T03:22:13.888Z,63.39
2022-08-30T03:24:40.471Z,62.39
2022-08-30T03:27:07.994Z,62.46
2022-08-30T03:29:34.873Z,63.55
2022-08-30T03:32:01.412Z,63.89
2022-08-30T03:34:28.028Z,64.63
2022-08-30T03:36:55.653Z,65.62
2022-08-30T03:39:23.808Z,65.83
2022-08-30T03:41:50.505Z,65.53
2022-08-30T03:44:18.561Z,64.84
2022-08-30T03:46:45.148Z,63.73
2022-08-30T03:49:11.604Z,63.19
2022-08-30T03:51:38.090Z,63.14
2022-08-30T03:54:04.844Z,62.64
2022-08-30T03:56:31.473Z,63.14
2022-08-30T03:58:57.997Z,63.13
2022-08-30T04:01:24.510Z,63.54
2022-08-30T04:03:50.990Z,64.00
2022-08-30T04:06:17.831Z,64.07
2022-08-30T04:08:45.994Z,64.69
2022-08-30T04:11:14.942Z,65.91
2022-08-30T04:13:41.769Z,66.29
2022-08-30T04:16:08.672Z,65.34
2022-08-30T04:18:36.244Z,65.74
2022-08-30T04:21:04.204Z,65.06
2022-08-30T04:23:30.758Z,64.39
2022-08-30T04:25:57.309Z,64.90
2022-08-30T04:28:24.055Z,65.18
2022-08-30T04:30:50.511Z,65.60
2022-08-30T04:33:17.730Z,64.93
2022-08-30T04:35:48.673Z,64.63
2022-08-30T04:38:17.551Z,65.17
2022-08-30T04:40:48.338Z,64.67
2022-08-30T04:43:16.337Z,65.09
2022-08-30T04:45:43.132Z,65.55
2022-08-30T04:48:10.395Z,66.17
2022-08-30T04:50:37.033Z,66.39
2022-08-30T04:53:12.475Z,66.90
2022-08-30T04:55:40.665Z,67.44
2022-08-30T04:58:07.449Z,67.94
2022-08-30T05:00:34.119Z,68.09
2022-08-30T05:03:00.928Z,66.71
2022-08-30T05:05:39.724Z,66.37
2022-08-30T05:08:12.363Z,65.94
2022-08-30T05:10:45.804Z,65.43
2022-08-30T05:13:13.163Z,65.18
2022-08-30T05:15:40.282Z,65.73
2022-08-30T05:18:08.568Z,65.82
2022-08-30T05:20:40.226Z,65.45
2022-08-30T05:23:06.845Z,65.56
2022-08-30T05:25:37.694Z,65.93
2022-08-30T05:28:04.603Z,65.22
2022-08-30T05:30:34.367Z,64.96
2022-08-30T05:33:02.324Z,64.52
2022-08-30T05:35:28.835Z,63.85
2022-08-30T05:37:55.795Z,63.28
2022-08-30T05:40:22.792Z,62.36
2022-08-30T05:42:49.346Z,61.57
2022-08-30T05:45:16.252Z,62.41
2022-08-30T05:47:42.788Z,61.30
2022-08-30T05:50:10.251Z,60.45
2022-08-30T05:52:38.347Z,62.67
2022-08-30T05:55:07.620Z,60.52
2022-08-30T05:57:36.047Z,59.31
2022-08-30T06:00:07.169Z,57.68
2022-08-30T06:02:38.803Z,57.03
2022-08-30T06:05:06.372Z,55.96
2022-08-30T06:07:32.823Z,54.61
2022-08-30T06:09:59.447Z,53.59
2022-08-30T06:12:26.299Z,52.30
2022-08-30T06:14:53.534Z,51.66
2022-08-30T06:17:20.177Z,50.93
2022-08-30T06:19:46.662Z,50.18
2022-08-30T06:22:13.173Z,49.59
2022-08-30T06:24:56.552Z,48.50
2022-08-30T06:27:24.217Z,48.15
2022-08-30T06:29:51.903Z,47.70
2022-08-30T06:32:18.660Z,47.71
2022-08-30T06:34:45.358Z,47.26
2022-08-30T06:37:11.796Z,47.11
2022-08-30T06:39:51.198Z,46.65
2022-08-30T06:42:17.736Z,46.22
2022-08-30T06:44:45.742Z,45.90
2022-08-30T06:47:12.327Z,45.27
2022-08-30T06:49:38.967Z,45.24
2022-08-30T06:52:08.236Z,44.79
2022-08-30T06:54:38.349Z,44.02
2022-08-30T06:57:04.880Z,44.04
2022-08-30T06:59:32.312Z,43.16
2022-08-30T07:02:00.220Z,43.22
2022-08-30T07:04:26.826Z,42.92
2022-08-30T07:06:53.904Z,43.09
2022-08-30T07:09:23.021Z,41.37
2022-08-30T07:11:50.652Z,40.56
2022-08-30T07:14:17.462Z,41.00
2022-08-30T07:16:45.530Z,39.72
2022-08-30T07:19:20.580Z,39.86
2022-08-30T07:21:49.214Z,39.87
2022-08-30T07:24:16.638Z,39.47
2022-08-30T07:26:48.931Z,39.73
2022-08-30T07:29:17.719Z,38.69
2022-08-30T07:31:44.381Z,38.51
2022-08-30T07:34:10.818Z,39.13
2022-08-30T07:36:38.490Z,38.42
2022-08-30T07:39:06.914Z,39.10
2022-08-30T07:41:38.500Z,38.37
2022-08-30T07:44:09.282Z,39.05
2022-08-30T07:46:37.889Z,38.64
2022-08-30T07:49:05.061Z,38.22
2022-08-30T07:51:38.278Z,39.68
2022-08-30T07:54:04.871Z,38.96
2022-08-30T07:56:31.332Z,38.65
2022-08-30T07:58:57.896Z,37.95
2022-08-30T08:01:24.694Z,38.15
2022-08-30T08:03:51.735Z,37.44
2022-08-30T08:06:20.802Z,37.45
2022-08-30T08:08:47.514Z,36.81
2022-08-30T08:11:23.260Z,37.30
2022-08-30T08:13:53.741Z,37.59
2022-08-30T08:16:23.167Z,37.54
2022-08-30T08:18:50.026Z,37.02
2022-08-30T08:21:16.549Z,37.01
2022-08-30T08:23:43.749Z,36.16
2022-08-30T08:26:10.272Z,36.02
2022-08-30T08:28:36.735Z,35.42
2022-08-30T08:31:03.626Z,35.93
2022-08-30T08:33:31.318Z,35.10
2022-08-30T08:35:57.817Z,35.19
2022-08-30T08:38:24.252Z,35.55
2022-08-30T08:41:02.601Z,35.39
2022-08-30T08:43:33.202Z,35.56
2022-08-30T08:46:37.628Z,35.13
2022-08-30T08:49:08.173Z,35.66
2022-08-30T08:51:58.758Z,35.51
2022-08-30T08:54:34.116Z,36.26
2022-08-30T08:57:01.176Z,36.83
2022-08-30T08:59:27.819Z,36.58
2022-08-30T09:01:58.728Z,36.49
2022-08-30T09:04:34.385Z,36.13
2022-08-30T09:07:05.674Z,35.81
2022-08-30T09:09:35.621Z,35.10
2022-08-30T09:12:02.911Z,35.43
2022-08-30T09:14:44.240Z,35.68
2022-08-30T09:17:18.161Z,35.58
2022-08-30T09:20:05.413Z,35.34
2022-08-30T09:22:38.129Z,33.97
2022-08-30T09:25:20.354Z,33.81
2022-08-30T09:27:49.702Z,34.36
2022-08-30T09:30:18.235Z,34.46
2022-08-30T09:32:57.511Z,33.91
2022-08-30T09:35:36.726Z,35.26
2022-08-30T09:38:07.525Z,34.29
2022-08-30T09:40:44.774Z,34.82
2022-08-30T09:43:25.676Z,33.83
2022-08-30T09:46:01.622Z,33.68
2022-08-30T09:48:40.342Z,33.28
2022-08-30T09:51:15.744Z,33.95
2022-08-30T09:54:16.650Z,33.30
2022-08-30T09:57:12.736Z,33.01
2022-08-30T10:00:05.172Z,32.91
2022-08-30T10:02:51.120Z,32.96
2022-08-30T10:05:23.520Z,33.02
2022-08-30T10:08:25.276Z,33.21
2022-08-30T10:11:01.335Z,33.17
2022-08-30T10:14:06.427Z,33.64
2022-08-30T10:16:42.833Z,34.31
2022-08-30T10:19:31.164Z,34.33
2022-08-30T10:22:04.635Z,34.46
2022-08-30T10:24:37.790Z,34.81
2022-08-30T10:27:29.200Z,34.46
2022-08-30T10:30:13.733Z,34.35
2022-08-30T10:32:48.073Z,33.83
2022-08-30T10:35:19.518Z,34.72
2022-08-30T10:37:58.540Z,34.12
2022-08-30T10:40:50.593Z,34.50
2022-08-30T10:43:23.526Z,34.34
2022-08-30T10:45:53.501Z,34.63
2022-08-30T10:48:49.583Z,34.24
2022-08-30T10:51:42.004Z,33.62
2022-08-30T10:54:18.682Z,33.80
2022-08-30T10:56:49.412Z,32.94
2022-08-30T10:59:20.426Z,33.89
2022-08-30T11:02:15.514Z,33.75
2022-08-30T11:05:11.311Z,33.19
2022-08-30T11:07:43.641Z,32.99
2022-08-30T11:11:06.632Z,31.97
2022-08-30T11:13:41.850Z,32.48
2022-08-30T11:16:15.339Z,32.90
2022-08-30T11:18:50.945Z,33.22
2022-08-30T11:21:41.595Z,32.79
2022-08-30T11:24:11.857Z,33.37
2022-08-30T11:26:52.211Z,33.18
2022-08-30T11:29:36.447Z,33.85
2022-08-30T11:32:11.991Z,33.75
2022-08-30T11:34:44.470Z,33.66
2022-08-30T11:37:35.765Z,33.08
2022-08-30T11:40:24.543Z,34.11
2022-08-30T11:42:54.391Z,34.21
2022-08-30T11:45:25.453Z,34.57
2022-08-30T11:47:54.410Z,34.38
2022-08-30T11:50:29.745Z,33.66
2022-08-30T11:53:21.272Z,34.43
2022-08-30T11:56:00.564Z,34.57
2022-08-30T11:58:30.077Z,34.35
2022-08-30T12:01:42.194Z,34.32
2022-08-30T12:04:33.735Z,33.85
2022-08-30T12:07:05.528Z,34.11
2022-08-30T12:09:35.162Z,34.74
2022-08-30T12:12:30.564Z,34.32
2022-08-30T12:14:57.755Z,34.38
2022-08-30T12:18:13.220Z,34.67
2022-08-30T12:20:46.477Z,34.70
2022-08-30T12:23:44.187Z,33.08
2022-08-30T12:26:20.668Z,33.33
2022-08-30T12:28:49.140Z,34.25
2022-08-30T12:31:22.575Z,35.27
2022-08-30T12:33:54.480Z,35.77
2022-08-30T12:36:40.353Z,35.71
2022-08-30T12:39:10.774Z,35.89
2022-08-30T12:41:43.494Z,35.93
2022-08-30T12:44:16.502Z,36.10
2022-08-30T12:46:48.248Z,36.12
2022-08-30T12:49:17.689Z,36.09
2022-08-30T12:51:44.866Z,36.10
2022-08-30T12:54:16.413Z,35.34
2022-08-30T12:56:53.934Z,35.71
2022-08-30T12:59:39.043Z,35.21
2022-08-30T13:02:20.223Z,34.61
2022-08-30T13:04:48.874Z,34.61
2022-08-30T13:07:35.596Z,33.74
2022-08-30T13:10:13.303Z,34.03
2022-08-30T13:12:40.360Z,33.50
2022-08-30T13:15:19.820Z,34.46
2022-08-30T13:17:46.922Z,34.33
2022-08-30T13:20:16.477Z,35.16
2022-08-30T13:25:30.251Z,34.54
2022-08-30T13:28:00.989Z,34.82
2022-08-30T13:30:28.190Z,34.28
2022-08-30T13:32:55.832Z,34.43
2022-08-30T13:35:22.523Z,34.53
2022-08-30T13:37:51.401Z,33.98
2022-08-30T13:40:20.448Z,34.51
2022-08-30T13:42:47.501Z,34.15
2022-08-30T13:48:02.227Z,33.58
2022-08-30T13:50:30.505Z,33.94
2022-08-30T13:52:57.499Z,34.36
2022-08-30T13:55:23.963Z,33.36
2022-08-30T13:57:54.352Z,33.57
2022-08-30T14:00:23.563Z,32.95
2022-08-30T14:02:54.618Z,33.26
2022-08-30T14:11:05.416Z,33.59
2022-08-30T14:13:32.875Z,33.67
2022-08-30T14:18:48.318Z,32.79
2022-08-30T14:21:15.828Z,33.66
2022-08-30T14:23:42.399Z,34.27
2022-08-30T14:26:18.180Z,34.15
2022-08-30T14:28:45.062Z,34.37
2022-08-30T14:31:12.262Z,33.92
2022-08-30T14:33:39.814Z,34.48
2022-08-30T14:36:10.946Z,34.32
2022-08-30T14:38:40.026Z,34.39
2022-08-30T14:41:10.621Z,34.61
2022-08-30T14:43:39.674Z,34.76
2022-08-30T14:46:07.310Z,35.08
2022-08-30T14:48:34.351Z,35.48
2022-08-30T14:51:01.816Z,35.64
2022-08-30T14:53:28.472Z,34.79
2022-08-30T14:55:54.889Z,34.58
2022-08-30T14:58:21.351Z,34.83
2022-08-30T15:00:52.351Z,33.81
2022-08-30T15:03:18.889Z,33.61
2022-08-30T15:05:53.052Z,33.98
2022-08-30T15:08:19.883Z,34.00
2022-08-30T15:10:47.341Z,34.24
2022-08-30T15:13:14.179Z,34.39
2022-08-30T15:15:42.815Z,34.35
2022-08-30T15:18:09.683Z,34.19
2022-08-30T15:20:37.486Z,34.50
2022-08-30T15:23:05.067Z,34.44
2022-08-30T15:25:31.508Z,34.61
2022-08-30T15:27:57.979Z,34.79
2022-08-30T15:30:24.483Z,34.91
2022-08-30T15:32:50.918Z,34.67
2022-08-30T15:35:17.373Z,34.35
2022-08-30T15:37:43.817Z,34.50
2022-08-30T15:40:10.584Z,35.03
2022-08-30T15:42:37.130Z,34.68
2022-08-30T15:45:04.725Z,34.61
2022-08-30T15:47:32.960Z,34.22
2022-08-30T15:50:02.993Z,34.28
2022-08-30T15:52:31.176Z,34.27
2022-08-30T15:54:58.370Z,34.22
2022-08-30T15:57:25.716Z,34.12
2022-08-30T15:59:54.568Z,34.37
2022-08-30T16:02:21.933Z,34.03
2022-08-30T16:04:54.171Z,34.18
2022-08-30T16:07:20.699Z,34.35
2022-08-30T16:09:47.479Z,33.96
2022-08-30T16:12:22.297Z,34.02
2022-08-30T16:14:50.024Z,33.98
2022-08-30T16:17:16.502Z,33.62
2022-08-30T16:19:44.904Z,33.54
2022-08-30T16:22:11.616Z,33.63
2022-08-30T16:24:38.511Z,33.04
2022-08-30T16:27:05.760Z,33.76
2022-08-30T16:29:35.596Z,32.93
2022-08-30T16:32:03.121Z,32.83
2022-08-30T16:34:29.640Z,33.25
2022-08-30T16:36:59.883Z,33.22
2022-08-30T16:39:26.339Z,33.17
2022-08-30T16:41:52.813Z,33.31
2022-08-30T16:44:19.263Z,33.23
2022-08-30T16:46:53.456Z,33.10
2022-08-30T16:49:22.716Z,33.43
2022-08-30T16:51:49.732Z,33.31
2022-08-30T16:54:17.491Z,33.60
2022-08-30T16:56:44.368Z,33.56
2022-08-30T16:59:13.133Z,33.12
2022-08-30T17:01:42.279Z,33.13
2022-08-30T17:04:10.927Z,33.03
2022-08-30T17:06:39.983Z,33.21
2022-08-30T17:09:08.448Z,33.42
2022-08-30T17:11:37.255Z,33.45
2022-08-30T17:14:04.332Z,33.48
2022-08-30T17:16:30.846Z,33.54
2022-08-30T17:18:59.703Z,34.09
2022-08-30T17:21:28.848Z,33.49
2022-08-30T17:24:02.127Z,33.64
2022-08-30T17:26:33.844Z,33.68
2022-08-30T17:29:00.967Z,33.75
2022-08-30T17:31:30.291Z,33.82
2022-08-30T17:34:03.329Z,33.83
2022-08-30T17:36:32.523Z,33.88
2022-08-30T17:38:59.048Z,33.69
2022-08-30T17:41:25.526Z,33.95
2022-08-30T17:43:51.965Z,34.02
2022-08-30T17:46:20.553Z,34.24
2022-08-30T17:48:47.576Z,34.15
2022-08-30T17:51:24.400Z,34.05
2022-08-30T17:53:50.847Z,34.17
2022-08-30T17:56:18.136Z,34.27
2022-08-30T17:58:45.096Z,34.32
2022-08-30T18:01:14.499Z,34.94
2022-08-30T18:03:42.126Z,35.49
2022-08-30T18:06:12.656Z,35.62
2022-08-30T18:08:39.500Z,36.82
2022-08-30T18:11:06.699Z,36.64
2022-08-30T18:13:33.604Z,36.29
2022-08-30T18:16:02.338Z,35.19
2022-08-30T18:21:35.928Z,35.06
2022-08-30T18:24:04.358Z,35.49
2022-08-30T18:26:31.991Z,35.91
2022-08-30T18:28:59.560Z,35.90
2022-08-30T18:31:26.918Z,35.86
2022-08-30T18:33:54.887Z,35.93
2022-08-30T18:36:21.703Z,35.95
2022-08-30T18:38:48.912Z,36.25
2022-08-30T18:41:16.533Z,36.59
2022-08-30T18:43:44.772Z,36.16
2022-08-30T18:49:58.693Z,36.62
2022-08-30T18:52:27.761Z,36.62
2022-08-30T18:54:54.296Z,36.81
2022-08-30T18:57:25.338Z,36.49
2022-08-30T18:59:51.804Z,36.67
2022-08-30T19:02:18.486Z,36.27
2022-08-30T19:04:45.711Z,36.30
2022-08-30T19:07:15.357Z,36.00
2022-08-30T19:09:43.084Z,36.29
2022-08-30T19:12:11.502Z,35.93
2022-08-30T19:14:38.736Z,35.68
2022-08-30T19:17:07.100Z,35.85
2022-08-30T19:19:34.745Z,36.01
2022-08-30T19:22:02.051Z,35.81
2022-08-30T19:24:28.680Z,35.54
2022-08-30T19:26:55.491Z,35.85
2022-08-30T19:29:22.075Z,35.77
2022-08-30T19:31:51.626Z,35.94
2022-08-30T19:34:19.056Z,36.35
2022-08-30T19:36:45.530Z,36.19
2022-08-30T19:39:13.966Z,36.23
2022-08-30T19:41:41.451Z,36.00
2022-08-30T19:44:07.924Z,36.08
2022-08-30T19:46:36.325Z,36.78
2022-08-30T19:49:04.637Z,36.53
2022-08-30T19:54:17.848Z,36.48
2022-08-30T19:56:44.787Z,36.43
2022-08-30T19:59:11.281Z,36.63
2022-08-30T20:01:38.484Z,36.29
2022-08-30T20:04:05.117Z,36.14
2022-08-30T20:06:32.980Z,36.03
2022-08-30T20:09:00.699Z,36.05
2022-08-30T20:11:28.062Z,36.28
2022-08-30T20:13:54.584Z,36.50
2022-08-30T20:16:21.316Z,36.48
2022-08-30T20:18:59.643Z,36.78
2022-08-30T20:21:26.090Z,36.67
2022-08-30T20:23:52.507Z,36.92
2022-08-30T20:26:19.091Z,37.19
2022-08-30T20:28:45.575Z,37.30
2022-08-30T20:31:12.952Z,37.29
2022-08-30T20:33:40.354Z,37.04
2022-08-30T20:36:10.796Z,36.88
2022-08-30T20:38:38.587Z,36.90
2022-08-30T20:41:14.123Z,37.34
2022-08-30T20:43:40.705Z,37.54
2022-08-30T20:46:14.255Z,37.60
2022-08-30T20:48:41.722Z,37.47
2022-08-30T20:51:10.138Z,37.17
2022-08-30T20:53:37.250Z,37.71
2022-08-30T20:56:04.600Z,37.72
2022-08-30T20:58:31.158Z,37.87
2022-08-30T21:00:57.702Z,38.04
2022-08-30T21:03:27.596Z,38.26
2022-08-30T21:05:55.990Z,38.88
2022-08-30T21:08:22.576Z,39.20
2022-08-30T21:10:49.175Z,39.05
2022-08-30T21:13:15.707Z,39.19
2022-08-30T21:15:45.904Z,39.43
2022-08-30T21:18:15.382Z,39.38
2022-08-30T21:20:42.281Z,39.64
2022-08-30T21:23:09.137Z,39.44
2022-08-30T21:25:38.559Z,39.98
2022-08-30T21:28:05.010Z,40.03
2022-08-30T21:30:31.549Z,40.07
2022-08-30T21:32:59.997Z,40.08
2022-08-30T21:35:45.800Z,40.41
2022-08-30T21:38:12.233Z,40.06
2022-08-30T21:40:38.876Z,40.29
2022-08-30T21:43:07.431Z,40.48
2022-08-30T21:45:41.183Z,40.33
2022-08-30T21:48:08.744Z,40.31
2022-08-30T21:50:37.670Z,40.19
2022-08-30T21:53:05.712Z,39.93
2022-08-30T21:55:32.904Z,39.99
2022-08-30T21:57:59.535Z,40.13
2022-08-30T22:00:26.338Z,40.25
2022-08-30T22:02:53.076Z,39.84
2022-08-30T22:05:19.961Z,40.31
2022-08-30T22:07:46.454Z,40.62
2022-08-30T22:10:12.927Z,40.44
2022-08-30T22:12:41.576Z,40.58
2022-08-30T22:15:09.384Z,40.70
2022-08-30T22:17:35.918Z,40.92
2022-08-30T22:20:03.906Z,40.92
2022-08-30T22:22:30.425Z,41.02
2022-08-30T22:24:56.849Z,40.75
2022-08-30T22:27:23.375Z,40.40
2022-08-30T22:29:49.917Z,40.17
2022-08-30T22:32:16.455Z,40.34
2022-08-30T22:34:46.968Z,40.15
2022-08-30T22:37:13.452Z,40.41
2022-08-30T22:39:39.907Z,40.33
2022-08-30T22:42:07.752Z,39.78
2022-08-30T22:44:34.251Z,40.30
2022-08-30T22:47:01.228Z,39.84
2022-08-30T22:49:27.720Z,39.74
2022-08-30T22:51:54.347Z,39.91
2022-08-30T22:54:20.889Z,40.07
2022-08-30T22:56:47.359Z,39.97
2022-08-30T22:59:14.963Z,41.37
2022-08-30T23:01:45.360Z,41.79
2022-08-30T23:04:12.715Z,41.87
2022-08-30T23:06:40.464Z,41.92
2022-08-30T23:09:07.926Z,41.66
2022-08-30T23:11:36.545Z,41.52
2022-08-30T23:14:05.058Z,41.39
2022-08-30T23:16:32.510Z,41.10
2022-08-30T23:18:59.949Z,41.20
2022-08-30T23:21:29.006Z,41.02
2022-08-30T23:24:15.760Z,41.11
2022-08-30T23:27:03.093Z,41.17
2022-08-30T23:29:49.107Z,41.69
2022-08-30T23:32:34.054Z,41.79
2022-08-30T23:35:19.636Z,42.60
2022-08-30T23:38:05.054Z,43.08
2022-08-30T23:40:50.610Z,43.28
2022-08-30T23:43:35.489Z,43.34
2022-08-30T23:46:20.881Z,43.20
2022-08-30T23:49:07.183Z,42.86
2022-08-30T23:51:52.778Z,42.91
2022-08-30T23:54:38.233Z,43.30
2022-08-30T23:57:23.884Z,43.40
